sensor_id;sensor_type;location;lat;lon;timestamp;P1;durP1;ratioP1;P2;durP2;ratioP2
69434;SDS011;56625;54.322;18.582;2023-08-21T00:00:42;9.90;;;5.90;;
69434;SDS011;56625;54.322;18.582;2023-08-21T00:03:29;8.90;;;5.30;;
69434;SDS011;56625;54.322;18.582;2023-08-21T00:05:56;10.70;;;5.20;;
69434;SDS011;56625;54.322;18.582;2023-08-21T00:08:23;8.90;;;4.90;;
69434;SDS011;56625;54.322;18.582;2023-08-21T00:10:50;10.20;;;5.50;;
69434;SDS011;56625;54.322;18.582;2023-08-21T00:13:16;9.30;;;5.20;;
69434;SDS011;56625;54.322;18.582;2023-08-21T00:15:43;9.30;;;4.90;;
69434;SDS011;56625;54.322;18.582;2023-08-21T00:18:10;10.80;;;4.90;;
69434;SDS011;56625;54.322;18.582;2023-08-21T00:20:36;9.20;;;5.50;;
69434;SDS011;56625;54.322;18.582;2023-08-21T00:23:03;10.20;;;5.50;;
69434;SDS011;56625;54.322;18.582;2023-08-21T00:25:30;9.30;;;4.90;;
69434;SDS011;56625;54.322;18.582;2023-08-21T00:27:56;9.90;;;5.00;;
69434;SDS011;56625;54.322;18.582;2023-08-21T00:30:23;9.60;;;5.20;;
69434;SDS011;56625;54.322;18.582;2023-08-21T00:32:49;9.60;;;5.10;;
69434;SDS011;56625;54.322;18.582;2023-08-21T00:35:16;9.50;;;5.10;;
69434;SDS011;56625;54.322;18.582;2023-08-21T00:37:42;8.90;;;5.10;;
69434;SDS011;56625;54.322;18.582;2023-08-21T00:40:09;9.30;;;4.80;;
69434;SDS011;56625;54.322;18.582;2023-08-21T00:42:36;10.30;;;4.90;;
69434;SDS011;56625;54.322;18.582;2023-08-21T00:45:04;9.60;;;4.90;;
69434;SDS011;56625;54.322;18.582;2023-08-21T00:47:31;10.00;;;5.00;;
69434;SDS011;56625;54.322;18.582;2023-08-21T00:49:58;8.20;;;4.60;;
69434;SDS011;56625;54.322;18.582;2023-08-21T00:52:26;9.40;;;5.10;;
69434;SDS011;56625;54.322;18.582;2023-08-21T00:54:52;9.80;;;5.10;;
69434;SDS011;56625;54.322;18.582;2023-08-21T00:57:20;10.70;;;5.20;;
69434;SDS011;56625;54.322;18.582;2023-08-21T00:59:47;9.20;;;5.10;;
69434;SDS011;56625;54.322;18.582;2023-08-21T01:02:14;10.10;;;5.30;;
69434;SDS011;56625;54.322;18.582;2023-08-21T01:04:40;9.10;;;4.90;;
69434;SDS011;56625;54.322;18.582;2023-08-21T01:07:07;9.70;;;5.20;;
69434;SDS011;56625;54.322;18.582;2023-08-21T01:09:38;10.20;;;4.80;;
69434;SDS011;56625;54.322;18.582;2023-08-21T01:12:33;9.60;;;5.20;;
69434;SDS011;56625;54.322;18.582;2023-08-21T01:15:07;10.20;;;5.20;;
69434;SDS011;56625;54.322;18.582;2023-08-21T01:17:37;10.40;;;5.50;;
69434;SDS011;56625;54.322;18.582;2023-08-21T01:20:06;11.10;;;5.70;;
69434;SDS011;56625;54.322;18.582;2023-08-21T01:22:39;10.70;;;5.50;;
69434;SDS011;56625;54.322;18.582;2023-08-21T01:25:07;10.80;;;5.70;;
69434;SDS011;56625;54.322;18.582;2023-08-21T01:27:41;9.90;;;5.30;;
69434;SDS011;56625;54.322;18.582;2023-08-21T01:30:10;11.80;;;5.60;;
69434;SDS011;56625;54.322;18.582;2023-08-21T01:32:58;10.20;;;5.20;;
69434;SDS011;56625;54.322;18.582;2023-08-21T01:35:35;11.20;;;5.40;;
69434;SDS011;56625;54.322;18.582;2023-08-21T01:38:03;9.80;;;5.30;;
69434;SDS011;56625;54.322;18.582;2023-08-21T01:40:30;9.10;;;5.10;;
69434;SDS011;56625;54.322;18.582;2023-08-21T01:42:57;12.70;;;5.80;;
69434;SDS011;56625;54.322;18.582;2023-08-21T01:45:24;9.30;;;5.00;;
69434;SDS011;56625;54.322;18.582;2023-08-21T01:47:50;9.90;;;5.40;;
69434;SDS011;56625;54.322;18.582;2023-08-21T01:50:18;11.20;;;5.20;;
69434;SDS011;56625;54.322;18.582;2023-08-21T01:52:45;9.90;;;5.00;;
69434;SDS011;56625;54.322;18.582;2023-08-21T01:55:12;10.30;;;5.50;;
69434;SDS011;56625;54.322;18.582;2023-08-21T01:57:38;11.70;;;5.80;;
69434;SDS011;56625;54.322;18.582;2023-08-21T02:00:05;11.80;;;5.20;;
69434;SDS011;56625;54.322;18.582;2023-08-21T02:02:33;10.30;;;5.50;;
69434;SDS011;56625;54.322;18.582;2023-08-21T02:05:00;11.40;;;5.30;;
69434;SDS011;56625;54.322;18.582;2023-08-21T02:07:27;11.80;;;5.90;;
69434;SDS011;56625;54.322;18.582;2023-08-21T02:09:53;12.30;;;5.80;;
69434;SDS011;56625;54.322;18.582;2023-08-21T02:12:20;9.90;;;5.20;;
69434;SDS011;56625;54.322;18.582;2023-08-21T02:14:46;10.20;;;5.00;;
69434;SDS011;56625;54.322;18.582;2023-08-21T02:17:13;11.20;;;5.20;;
69434;SDS011;56625;54.322;18.582;2023-08-21T02:19:40;11.70;;;4.90;;
69434;SDS011;56625;54.322;18.582;2023-08-21T02:22:07;9.10;;;4.90;;
69434;SDS011;56625;54.322;18.582;2023-08-21T02:24:33;9.00;;;4.80;;
69434;SDS011;56625;54.322;18.582;2023-08-21T02:27:00;9.90;;;4.40;;
69434;SDS011;56625;54.322;18.582;2023-08-21T02:29:26;10.40;;;5.00;;
69434;SDS011;56625;54.322;18.582;2023-08-21T02:31:53;11.10;;;5.10;;
69434;SDS011;56625;54.322;18.582;2023-08-21T02:34:19;10.30;;;5.00;;
69434;SDS011;56625;54.322;18.582;2023-08-21T02:36:46;9.20;;;4.90;;
69434;SDS011;56625;54.322;18.582;2023-08-21T02:39:12;10.50;;;5.00;;
69434;SDS011;56625;54.322;18.582;2023-08-21T02:41:39;10.00;;;5.10;;
69434;SDS011;56625;54.322;18.582;2023-08-21T02:44:05;9.10;;;4.50;;
69434;SDS011;56625;54.322;18.582;2023-08-21T02:46:33;11.50;;;5.20;;
69434;SDS011;56625;54.322;18.582;2023-08-21T02:49:02;10.40;;;4.90;;
69434;SDS011;56625;54.322;18.582;2023-08-21T02:51:28;10.80;;;5.00;;
69434;SDS011;56625;54.322;18.582;2023-08-21T02:53:55;10.10;;;4.90;;
69434;SDS011;56625;54.322;18.582;2023-08-21T02:56:22;10.10;;;4.50;;
69434;SDS011;56625;54.322;18.582;2023-08-21T02:58:49;10.30;;;4.70;;
69434;SDS011;56625;54.322;18.582;2023-08-21T03:01:15;8.20;;;3.80;;
69434;SDS011;56625;54.322;18.582;2023-08-21T03:03:43;9.90;;;4.10;;
69434;SDS011;56625;54.322;18.582;2023-08-21T03:06:09;9.50;;;4.10;;
69434;SDS011;56625;54.322;18.582;2023-08-21T03:08:36;9.00;;;4.00;;
69434;SDS011;56625;54.322;18.582;2023-08-21T03:11:02;8.40;;;3.50;;
69434;SDS011;56625;54.322;18.582;2023-08-21T03:13:29;8.80;;;4.00;;
69434;SDS011;56625;54.322;18.582;2023-08-21T03:15:56;8.90;;;3.60;;
69434;SDS011;56625;54.322;18.582;2023-08-21T03:18:22;8.20;;;3.60;;
69434;SDS011;56625;54.322;18.582;2023-08-21T03:20:49;7.80;;;3.30;;
69434;SDS011;56625;54.322;18.582;2023-08-21T03:23:15;10.10;;;3.70;;
69434;SDS011;56625;54.322;18.582;2023-08-21T03:25:42;8.30;;;3.80;;
69434;SDS011;56625;54.322;18.582;2023-08-21T03:28:08;8.50;;;3.80;;
69434;SDS011;56625;54.322;18.582;2023-08-21T03:30:35;8.10;;;3.50;;
69434;SDS011;56625;54.322;18.582;2023-08-21T03:33:01;7.10;;;3.10;;
69434;SDS011;56625;54.322;18.582;2023-08-21T03:35:28;6.90;;;2.50;;
69434;SDS011;56625;54.322;18.582;2023-08-21T03:37:55;6.50;;;2.60;;
69434;SDS011;56625;54.322;18.582;2023-08-21T03:40:21;6.30;;;2.50;;
69434;SDS011;56625;54.322;18.582;2023-08-21T03:42:48;5.90;;;2.40;;
69434;SDS011;56625;54.322;18.582;2023-08-21T03:45:14;5.60;;;2.30;;
69434;SDS011;56625;54.322;18.582;2023-08-21T03:47:41;6.70;;;2.40;;
69434;SDS011;56625;54.322;18.582;2023-08-21T03:50:08;7.20;;;2.70;;
69434;SDS011;56625;54.322;18.582;2023-08-21T03:52:35;6.30;;;2.50;;
69434;SDS011;56625;54.322;18.582;2023-08-21T03:55:02;7.80;;;2.40;;
69434;SDS011;56625;54.322;18.582;2023-08-21T03:57:29;6.70;;;2.20;;
69434;SDS011;56625;54.322;18.582;2023-08-21T03:59:56;7.10;;;2.40;;
69434;SDS011;56625;54.322;18.582;2023-08-21T04:02:22;7.60;;;2.30;;
69434;SDS011;56625;54.322;18.582;2023-08-21T04:04:52;6.80;;;2.10;;
69434;SDS011;56625;54.322;18.582;2023-08-21T04:07:19;5.90;;;2.20;;
69434;SDS011;56625;54.322;18.582;2023-08-21T04:09:45;6.40;;;2.40;;
69434;SDS011;56625;54.322;18.582;2023-08-21T04:12:14;7.40;;;2.40;;
69434;SDS011;56625;54.322;18.582;2023-08-21T04:14:40;7.50;;;2.50;;
69434;SDS011;56625;54.322;18.582;2023-08-21T04:17:07;6.80;;;2.50;;
69434;SDS011;56625;54.322;18.582;2023-08-21T04:19:33;5.50;;;2.00;;
69434;SDS011;56625;54.322;18.582;2023-08-21T04:22:00;5.50;;;2.00;;
69434;SDS011;56625;54.322;18.582;2023-08-21T04:24:27;7.30;;;2.40;;
69434;SDS011;56625;54.322;18.582;2023-08-21T04:26:53;5.40;;;2.20;;
69434;SDS011;56625;54.322;18.582;2023-08-21T04:29:20;6.70;;;2.20;;
69434;SDS011;56625;54.322;18.582;2023-08-21T04:31:46;5.80;;;2.20;;
69434;SDS011;56625;54.322;18.582;2023-08-21T04:34:13;5.10;;;1.90;;
69434;SDS011;56625;54.322;18.582;2023-08-21T04:36:40;6.00;;;2.00;;
69434;SDS011;56625;54.322;18.582;2023-08-21T04:39:06;5.80;;;1.90;;
69434;SDS011;56625;54.322;18.582;2023-08-21T04:41:33;7.40;;;2.10;;
69434;SDS011;56625;54.322;18.582;2023-08-21T04:44:00;5.70;;;1.80;;
69434;SDS011;56625;54.322;18.582;2023-08-21T04:46:27;6.60;;;2.00;;
69434;SDS011;56625;54.322;18.582;2023-08-21T04:48:53;7.20;;;2.20;;
69434;SDS011;56625;54.322;18.582;2023-08-21T04:51:20;5.10;;;1.80;;
69434;SDS011;56625;54.322;18.582;2023-08-21T04:53:47;6.60;;;2.20;;
69434;SDS011;56625;54.322;18.582;2023-08-21T04:56:13;7.40;;;2.50;;
69434;SDS011;56625;54.322;18.582;2023-08-21T04:58:40;5.90;;;1.90;;
69434;SDS011;56625;54.322;18.582;2023-08-21T05:01:07;7.70;;;2.20;;
69434;SDS011;56625;54.322;18.582;2023-08-21T05:03:33;6.70;;;2.10;;
69434;SDS011;56625;54.322;18.582;2023-08-21T05:06:00;7.30;;;2.40;;
69434;SDS011;56625;54.322;18.582;2023-08-21T05:08:27;5.80;;;2.10;;
69434;SDS011;56625;54.322;18.582;2023-08-21T05:10:58;6.70;;;2.40;;
69434;SDS011;56625;54.322;18.582;2023-08-21T05:13:25;6.80;;;2.30;;
69434;SDS011;56625;54.322;18.582;2023-08-21T05:15:53;7.90;;;2.10;;
69434;SDS011;56625;54.322;18.582;2023-08-21T05:18:21;7.40;;;2.40;;
69434;SDS011;56625;54.322;18.582;2023-08-21T05:20:49;9.80;;;2.40;;
69434;SDS011;56625;54.322;18.582;2023-08-21T05:23:16;6.90;;;2.20;;
69434;SDS011;56625;54.322;18.582;2023-08-21T05:25:44;9.00;;;2.10;;
69434;SDS011;56625;54.322;18.582;2023-08-21T05:28:11;6.60;;;2.60;;
69434;SDS011;56625;54.322;18.582;2023-08-21T05:30:38;7.80;;;2.40;;
69434;SDS011;56625;54.322;18.582;2023-08-21T05:33:04;6.40;;;2.30;;
69434;SDS011;56625;54.322;18.582;2023-08-21T05:35:35;7.90;;;2.20;;
69434;SDS011;56625;54.322;18.582;2023-08-21T05:38:03;9.40;;;2.40;;
69434;SDS011;56625;54.322;18.582;2023-08-21T05:40:30;6.90;;;2.30;;
69434;SDS011;56625;54.322;18.582;2023-08-21T05:42:57;7.60;;;2.30;;
69434;SDS011;56625;54.322;18.582;2023-08-21T05:45:24;9.00;;;2.60;;
69434;SDS011;56625;54.322;18.582;2023-08-21T05:47:51;11.30;;;3.00;;
69434;SDS011;56625;54.322;18.582;2023-08-21T05:50:17;9.70;;;3.00;;
69434;SDS011;56625;54.322;18.582;2023-08-21T05:52:44;8.90;;;2.90;;
69434;SDS011;56625;54.322;18.582;2023-08-21T05:55:11;8.80;;;2.90;;
69434;SDS011;56625;54.322;18.582;2023-08-21T05:57:38;12.00;;;2.80;;
69434;SDS011;56625;54.322;18.582;2023-08-21T06:00:05;7.50;;;2.50;;
69434;SDS011;56625;54.322;18.582;2023-08-21T06:02:35;11.10;;;2.80;;
69434;SDS011;56625;54.322;18.582;2023-08-21T06:05:03;9.50;;;2.50;;
69434;SDS011;56625;54.322;18.582;2023-08-21T06:07:30;8.60;;;2.50;;
69434;SDS011;56625;54.322;18.582;2023-08-21T06:09:58;10.10;;;2.40;;
69434;SDS011;56625;54.322;18.582;2023-08-21T06:12:25;8.40;;;2.60;;
69434;SDS011;56625;54.322;18.582;2023-08-21T06:14:57;10.60;;;3.50;;
69434;SDS011;56625;54.322;18.582;2023-08-21T06:17:27;8.50;;;2.70;;
69434;SDS011;56625;54.322;18.582;2023-08-21T06:19:54;9.50;;;2.70;;
69434;SDS011;56625;54.322;18.582;2023-08-21T06:22:21;8.90;;;2.90;;
69434;SDS011;56625;54.322;18.582;2023-08-21T06:24:48;8.00;;;2.40;;
69434;SDS011;56625;54.322;18.582;2023-08-21T06:27:15;8.80;;;2.70;;
69434;SDS011;56625;54.322;18.582;2023-08-21T06:29:42;7.80;;;2.40;;
69434;SDS011;56625;54.322;18.582;2023-08-21T06:32:08;7.30;;;2.30;;
69434;SDS011;56625;54.322;18.582;2023-08-21T06:34:35;9.60;;;2.20;;
69434;SDS011;56625;54.322;18.582;2023-08-21T06:37:01;7.30;;;1.70;;
69434;SDS011;56625;54.322;18.582;2023-08-21T06:39:28;7.60;;;2.40;;
69434;SDS011;56625;54.322;18.582;2023-08-21T06:41:54;8.70;;;2.70;;
69434;SDS011;56625;54.322;18.582;2023-08-21T06:44:21;8.30;;;2.20;;
69434;SDS011;56625;54.322;18.582;2023-08-21T06:46:48;7.70;;;2.30;;
69434;SDS011;56625;54.322;18.582;2023-08-21T06:49:14;9.50;;;2.60;;
69434;SDS011;56625;54.322;18.582;2023-08-21T06:51:41;7.40;;;2.40;;
69434;SDS011;56625;54.322;18.582;2023-08-21T06:54:08;7.60;;;2.20;;
69434;SDS011;56625;54.322;18.582;2023-08-21T06:56:34;7.90;;;2.20;;
69434;SDS011;56625;54.322;18.582;2023-08-21T06:59:01;7.90;;;2.50;;
69434;SDS011;56625;54.322;18.582;2023-08-21T07:01:28;7.60;;;2.40;;
69434;SDS011;56625;54.322;18.582;2023-08-21T07:03:55;7.90;;;2.30;;
69434;SDS011;56625;54.322;18.582;2023-08-21T07:06:21;9.00;;;2.40;;
69434;SDS011;56625;54.322;18.582;2023-08-21T07:08:48;9.30;;;2.40;;
69434;SDS011;56625;54.322;18.582;2023-08-21T07:11:14;10.80;;;2.60;;
69434;SDS011;56625;54.322;18.582;2023-08-21T07:13:43;8.00;;;2.30;;
69434;SDS011;56625;54.322;18.582;2023-08-21T07:16:10;7.20;;;2.40;;
69434;SDS011;56625;54.322;18.582;2023-08-21T07:18:38;7.00;;;2.60;;
69434;SDS011;56625;54.322;18.582;2023-08-21T07:21:05;7.70;;;2.10;;
69434;SDS011;56625;54.322;18.582;2023-08-21T07:23:48;6.20;;;2.00;;
69434;SDS011;56625;54.322;18.582;2023-08-21T07:26:14;8.30;;;2.30;;
69434;SDS011;56625;54.322;18.582;2023-08-21T07:28:41;5.80;;;1.80;;
69434;SDS011;56625;54.322;18.582;2023-08-21T07:31:07;7.50;;;2.20;;
69434;SDS011;56625;54.322;18.582;2023-08-21T07:33:34;7.00;;;2.30;;
69434;SDS011;56625;54.322;18.582;2023-08-21T07:36:03;6.40;;;2.10;;
69434;SDS011;56625;54.322;18.582;2023-08-21T07:38:31;7.70;;;2.40;;
69434;SDS011;56625;54.322;18.582;2023-08-21T07:41:08;7.50;;;2.40;;
69434;SDS011;56625;54.322;18.582;2023-08-21T07:43:43;9.00;;;1.90;;
69434;SDS011;56625;54.322;18.582;2023-08-21T07:46:12;7.50;;;1.90;;
69434;SDS011;56625;54.322;18.582;2023-08-21T07:48:42;9.90;;;2.00;;
69434;SDS011;56625;54.322;18.582;2023-08-21T07:51:09;5.50;;;1.60;;
69434;SDS011;56625;54.322;18.582;2023-08-21T07:53:36;5.40;;;1.60;;
69434;SDS011;56625;54.322;18.582;2023-08-21T07:56:03;8.30;;;1.50;;
69434;SDS011;56625;54.322;18.582;2023-08-21T07:58:32;6.70;;;1.70;;
69434;SDS011;56625;54.322;18.582;2023-08-21T08:00:59;6.50;;;1.80;;
69434;SDS011;56625;54.322;18.582;2023-08-21T08:03:27;6.40;;;1.70;;
69434;SDS011;56625;54.322;18.582;2023-08-21T08:05:54;6.60;;;1.60;;
69434;SDS011;56625;54.322;18.582;2023-08-21T08:08:22;6.60;;;1.70;;
69434;SDS011;56625;54.322;18.582;2023-08-21T08:10:48;7.40;;;1.50;;
69434;SDS011;56625;54.322;18.582;2023-08-21T08:13:15;9.70;;;1.50;;
69434;SDS011;56625;54.322;18.582;2023-08-21T08:15:42;6.20;;;1.20;;
69434;SDS011;56625;54.322;18.582;2023-08-21T08:18:13;5.10;;;1.20;;
69434;SDS011;56625;54.322;18.582;2023-08-21T08:20:40;6.90;;;1.50;;
69434;SDS011;56625;54.322;18.582;2023-08-21T08:23:06;6.70;;;1.50;;
69434;SDS011;56625;54.322;18.582;2023-08-21T08:25:33;5.80;;;1.40;;
69434;SDS011;56625;54.322;18.582;2023-08-21T08:28:00;6.10;;;1.20;;
69434;SDS011;56625;54.322;18.582;2023-08-21T08:30:27;7.30;;;1.80;;
69434;SDS011;56625;54.322;18.582;2023-08-21T08:32:54;8.00;;;1.40;;
69434;SDS011;56625;54.322;18.582;2023-08-21T08:35:20;5.30;;;1.40;;
69434;SDS011;56625;54.322;18.582;2023-08-21T08:37:47;5.00;;;1.40;;
69434;SDS011;56625;54.322;18.582;2023-08-21T08:40:14;7.00;;;1.30;;
69434;SDS011;56625;54.322;18.582;2023-08-21T08:42:40;5.50;;;1.30;;
69434;SDS011;56625;54.322;18.582;2023-08-21T08:45:07;4.90;;;1.30;;
69434;SDS011;56625;54.322;18.582;2023-08-21T08:47:35;6.70;;;1.40;;
69434;SDS011;56625;54.322;18.582;2023-08-21T08:50:04;7.00;;;1.50;;
69434;SDS011;56625;54.322;18.582;2023-08-21T08:52:38;7.70;;;1.50;;
69434;SDS011;56625;54.322;18.582;2023-08-21T08:55:07;11.30;;;1.60;;
69434;SDS011;56625;54.322;18.582;2023-08-21T08:57:34;6.30;;;1.40;;
69434;SDS011;56625;54.322;18.582;2023-08-21T09:00:02;6.00;;;1.50;;
69434;SDS011;56625;54.322;18.582;2023-08-21T09:02:30;6.10;;;1.70;;
69434;SDS011;56625;54.322;18.582;2023-08-21T09:04:57;5.00;;;1.10;;
69434;SDS011;56625;54.322;18.582;2023-08-21T09:07:25;4.00;;;0.90;;
69434;SDS011;56625;54.322;18.582;2023-08-21T09:09:51;4.60;;;1.30;;
69434;SDS011;56625;54.322;18.582;2023-08-21T09:12:19;4.70;;;1.00;;
69434;SDS011;56625;54.322;18.582;2023-08-21T09:14:47;5.60;;;1.10;;
69434;SDS011;56625;54.322;18.582;2023-08-21T09:17:14;4.60;;;1.20;;
69434;SDS011;56625;54.322;18.582;2023-08-21T09:19:42;7.70;;;1.20;;
69434;SDS011;56625;54.322;18.582;2023-08-21T09:22:17;6.20;;;1.40;;
69434;SDS011;56625;54.322;18.582;2023-08-21T09:25:07;4.90;;;1.30;;
69434;SDS011;56625;54.322;18.582;2023-08-21T09:27:38;4.70;;;1.20;;
69434;SDS011;56625;54.322;18.582;2023-08-21T09:30:10;5.20;;;0.80;;
69434;SDS011;56625;54.322;18.582;2023-08-21T09:32:58;11.40;;;1.10;;
69434;SDS011;56625;54.322;18.582;2023-08-21T09:35:33;6.90;;;1.20;;
69434;SDS011;56625;54.322;18.582;2023-08-21T09:38:00;11.00;;;1.80;;
69434;SDS011;56625;54.322;18.582;2023-08-21T09:40:27;6.40;;;1.10;;
69434;SDS011;56625;54.322;18.582;2023-08-21T09:42:55;5.40;;;1.00;;
69434;SDS011;56625;54.322;18.582;2023-08-21T09:45:23;10.40;;;1.30;;
69434;SDS011;56625;54.322;18.582;2023-08-21T09:47:51;5.10;;;1.10;;
69434;SDS011;56625;54.322;18.582;2023-08-21T09:50:20;6.70;;;1.20;;
69434;SDS011;56625;54.322;18.582;2023-08-21T09:52:49;6.10;;;1.00;;
69434;SDS011;56625;54.322;18.582;2023-08-21T09:55:17;7.30;;;1.30;;
69434;SDS011;56625;54.322;18.582;2023-08-21T09:57:44;7.20;;;1.10;;
69434;SDS011;56625;54.322;18.582;2023-08-21T10:00:11;6.20;;;1.30;;
69434;SDS011;56625;54.322;18.582;2023-08-21T10:02:51;5.10;;;1.20;;
69434;SDS011;56625;54.322;18.582;2023-08-21T10:05:18;8.20;;;1.20;;
69434;SDS011;56625;54.322;18.582;2023-08-21T10:07:49;9.50;;;1.20;;
69434;SDS011;56625;54.322;18.582;2023-08-21T10:10:17;7.40;;;1.00;;
69434;SDS011;56625;54.322;18.582;2023-08-21T10:12:44;7.30;;;1.00;;
69434;SDS011;56625;54.322;18.582;2023-08-21T10:15:11;4.50;;;0.90;;
69434;SDS011;56625;54.322;18.582;2023-08-21T10:17:38;5.10;;;1.00;;
69434;SDS011;56625;54.322;18.582;2023-08-21T10:20:06;12.50;;;1.60;;
69434;SDS011;56625;54.322;18.582;2023-08-21T10:22:42;14.60;;;1.40;;
69434;SDS011;56625;54.322;18.582;2023-08-21T10:25:22;6.10;;;1.20;;
69434;SDS011;56625;54.322;18.582;2023-08-21T10:27:59;9.00;;;1.50;;
69434;SDS011;56625;54.322;18.582;2023-08-21T10:30:27;7.00;;;1.30;;
69434;SDS011;56625;54.322;18.582;2023-08-21T10:32:56;4.80;;;1.10;;
69434;SDS011;56625;54.322;18.582;2023-08-21T10:35:28;8.50;;;1.50;;
69434;SDS011;56625;54.322;18.582;2023-08-21T10:38:12;8.20;;;1.00;;
69434;SDS011;56625;54.322;18.582;2023-08-21T10:40:41;6.70;;;1.10;;
69434;SDS011;56625;54.322;18.582;2023-08-21T10:46:12;7.10;;;1.00;;
69434;SDS011;56625;54.322;18.582;2023-08-21T10:48:39;6.10;;;1.20;;
69434;SDS011;56625;54.322;18.582;2023-08-21T10:51:07;4.60;;;1.10;;
69434;SDS011;56625;54.322;18.582;2023-08-21T10:53:35;9.00;;;1.50;;
69434;SDS011;56625;54.322;18.582;2023-08-21T10:56:03;9.00;;;1.10;;
69434;SDS011;56625;54.322;18.582;2023-08-21T10:58:50;6.00;;;1.00;;
69434;SDS011;56625;54.322;18.582;2023-08-21T11:01:20;5.90;;;0.90;;
69434;SDS011;56625;54.322;18.582;2023-08-21T11:03:46;6.20;;;1.10;;
69434;SDS011;56625;54.322;18.582;2023-08-21T11:06:18;6.20;;;1.20;;
69434;SDS011;56625;54.322;18.582;2023-08-21T11:08:46;4.90;;;1.00;;
69434;SDS011;56625;54.322;18.582;2023-08-21T11:11:12;7.90;;;1.30;;
69434;SDS011;56625;54.322;18.582;2023-08-21T11:13:39;7.60;;;1.20;;
69434;SDS011;56625;54.322;18.582;2023-08-21T11:16:05;6.10;;;1.20;;
69434;SDS011;56625;54.322;18.582;2023-08-21T11:18:36;5.80;;;1.00;;
69434;SDS011;56625;54.322;18.582;2023-08-21T11:21:11;6.40;;;1.10;;
69434;SDS011;56625;54.322;18.582;2023-08-21T11:23:39;7.30;;;1.00;;
69434;SDS011;56625;54.322;18.582;2023-08-21T11:26:11;7.00;;;1.10;;
69434;SDS011;56625;54.322;18.582;2023-08-21T11:28:47;9.70;;;1.30;;
69434;SDS011;56625;54.322;18.582;2023-08-21T11:31:15;4.60;;;0.80;;
69434;SDS011;56625;54.322;18.582;2023-08-21T11:33:49;9.40;;;1.10;;
69434;SDS011;56625;54.322;18.582;2023-08-21T11:36:17;7.10;;;1.00;;
69434;SDS011;56625;54.322;18.582;2023-08-21T11:39:00;7.30;;;1.10;;
69434;SDS011;56625;54.322;18.582;2023-08-21T11:41:29;8.00;;;1.50;;
69434;SDS011;56625;54.322;18.582;2023-08-21T11:44:03;8.40;;;1.40;;
69434;SDS011;56625;54.322;18.582;2023-08-21T11:46:30;10.00;;;1.60;;
69434;SDS011;56625;54.322;18.582;2023-08-21T11:48:57;8.30;;;1.20;;
69434;SDS011;56625;54.322;18.582;2023-08-21T11:51:26;4.40;;;0.90;;
69434;SDS011;56625;54.322;18.582;2023-08-21T11:53:54;5.20;;;0.90;;
69434;SDS011;56625;54.322;18.582;2023-08-21T11:56:20;9.40;;;1.30;;
69434;SDS011;56625;54.322;18.582;2023-08-21T11:58:50;8.70;;;1.10;;
69434;SDS011;56625;54.322;18.582;2023-08-21T12:01:20;6.30;;;1.30;;
69434;SDS011;56625;54.322;18.582;2023-08-21T12:03:48;4.30;;;0.80;;
69434;SDS011;56625;54.322;18.582;2023-08-21T12:06:22;4.70;;;1.00;;
69434;SDS011;56625;54.322;18.582;2023-08-21T12:08:51;5.80;;;1.00;;
69434;SDS011;56625;54.322;18.582;2023-08-21T12:11:18;4.80;;;1.00;;
69434;SDS011;56625;54.322;18.582;2023-08-21T12:13:45;4.60;;;0.80;;
69434;SDS011;56625;54.322;18.582;2023-08-21T12:16:11;4.10;;;0.70;;
69434;SDS011;56625;54.322;18.582;2023-08-21T12:18:38;5.60;;;1.00;;
69434;SDS011;56625;54.322;18.582;2023-08-21T12:21:05;8.40;;;1.30;;
69434;SDS011;56625;54.322;18.582;2023-08-21T12:23:34;5.40;;;0.70;;
69434;SDS011;56625;54.322;18.582;2023-08-21T12:26:00;6.20;;;0.90;;
69434;SDS011;56625;54.322;18.582;2023-08-21T12:28:27;5.00;;;0.80;;
69434;SDS011;56625;54.322;18.582;2023-08-21T12:30:54;5.50;;;0.90;;
69434;SDS011;56625;54.322;18.582;2023-08-21T12:33:20;6.70;;;0.90;;
69434;SDS011;56625;54.322;18.582;2023-08-21T12:35:50;6.70;;;0.80;;
69434;SDS011;56625;54.322;18.582;2023-08-21T12:38:17;4.80;;;0.80;;
69434;SDS011;56625;54.322;18.582;2023-08-21T12:40:44;3.40;;;0.70;;
69434;SDS011;56625;54.322;18.582;2023-08-21T12:43:10;4.90;;;0.70;;
69434;SDS011;56625;54.322;18.582;2023-08-21T12:45:37;4.40;;;0.70;;
69434;SDS011;56625;54.322;18.582;2023-08-21T12:48:04;6.70;;;1.10;;
69434;SDS011;56625;54.322;18.582;2023-08-21T12:50:31;3.80;;;0.70;;
69434;SDS011;56625;54.322;18.582;2023-08-21T12:52:59;5.00;;;0.90;;
69434;SDS011;56625;54.322;18.582;2023-08-21T12:55:28;4.70;;;0.90;;
69434;SDS011;56625;54.322;18.582;2023-08-21T12:57:56;12.00;;;1.10;;
69434;SDS011;56625;54.322;18.582;2023-08-21T13:00:23;8.50;;;0.90;;
69434;SDS011;56625;54.322;18.582;2023-08-21T13:02:49;5.40;;;0.60;;
69434;SDS011;56625;54.322;18.582;2023-08-21T13:05:16;5.80;;;0.90;;
69434;SDS011;56625;54.322;18.582;2023-08-21T13:07:45;7.00;;;0.80;;
69434;SDS011;56625;54.322;18.582;2023-08-21T13:10:11;3.10;;;0.70;;
69434;SDS011;56625;54.322;18.582;2023-08-21T13:12:38;6.80;;;0.90;;
69434;SDS011;56625;54.322;18.582;2023-08-21T13:15:05;3.60;;;0.70;;
69434;SDS011;56625;54.322;18.582;2023-08-21T13:17:34;6.30;;;1.00;;
69434;SDS011;56625;54.322;18.582;2023-08-21T13:20:02;5.10;;;1.00;;
69434;SDS011;56625;54.322;18.582;2023-08-21T13:22:44;6.20;;;0.80;;
69434;SDS011;56625;54.322;18.582;2023-08-21T13:25:15;5.50;;;0.80;;
69434;SDS011;56625;54.322;18.582;2023-08-21T13:27:44;3.70;;;0.60;;
69434;SDS011;56625;54.322;18.582;2023-08-21T13:30:11;4.40;;;0.80;;
69434;SDS011;56625;54.322;18.582;2023-08-21T13:32:38;6.10;;;0.90;;
69434;SDS011;56625;54.322;18.582;2023-08-21T13:35:05;5.70;;;0.70;;
69434;SDS011;56625;54.322;18.582;2023-08-21T13:37:36;4.40;;;0.60;;
69434;SDS011;56625;54.322;18.582;2023-08-21T13:40:04;10.40;;;1.00;;
69434;SDS011;56625;54.322;18.582;2023-08-21T13:42:41;3.70;;;0.60;;
69434;SDS011;56625;54.322;18.582;2023-08-21T13:45:13;6.10;;;0.80;;
69434;SDS011;56625;54.322;18.582;2023-08-21T13:47:47;3.70;;;0.70;;
69434;SDS011;56625;54.322;18.582;2023-08-21T13:50:17;4.00;;;0.60;;
69434;SDS011;56625;54.322;18.582;2023-08-21T13:52:47;4.10;;;0.70;;
69434;SDS011;56625;54.322;18.582;2023-08-21T13:55:14;3.80;;;0.80;;
69434;SDS011;56625;54.322;18.582;2023-08-21T13:57:42;4.90;;;0.70;;
69434;SDS011;56625;54.322;18.582;2023-08-21T14:00:10;6.10;;;0.80;;
69434;SDS011;56625;54.322;18.582;2023-08-21T14:02:41;4.40;;;0.90;;
69434;SDS011;56625;54.322;18.582;2023-08-21T14:05:08;4.00;;;0.90;;
69434;SDS011;56625;54.322;18.582;2023-08-21T14:07:36;10.20;;;0.80;;
69434;SDS011;56625;54.322;18.582;2023-08-21T14:10:04;4.70;;;0.90;;
69434;SDS011;56625;54.322;18.582;2023-08-21T14:12:31;5.40;;;0.90;;
69434;SDS011;56625;54.322;18.582;2023-08-21T14:14:59;4.30;;;0.70;;
69434;SDS011;56625;54.322;18.582;2023-08-21T14:17:27;8.70;;;0.90;;
69434;SDS011;56625;54.322;18.582;2023-08-21T14:19:54;8.00;;;1.00;;
69434;SDS011;56625;54.322;18.582;2023-08-21T14:22:21;16.30;;;1.40;;
69434;SDS011;56625;54.322;18.582;2023-08-21T14:24:49;6.90;;;0.90;;
69434;SDS011;56625;54.322;18.582;2023-08-21T14:27:15;6.90;;;1.20;;
69434;SDS011;56625;54.322;18.582;2023-08-21T14:29:43;6.30;;;0.80;;
69434;SDS011;56625;54.322;18.582;2023-08-21T14:32:11;4.80;;;0.70;;
69434;SDS011;56625;54.322;18.582;2023-08-21T14:34:38;5.80;;;1.00;;
69434;SDS011;56625;54.322;18.582;2023-08-21T14:37:05;6.70;;;0.80;;
69434;SDS011;56625;54.322;18.582;2023-08-21T14:39:32;3.60;;;0.80;;
69434;SDS011;56625;54.322;18.582;2023-08-21T14:41:59;10.00;;;1.00;;